createdAt,value
2022-09-23T00:01:07.679Z,2.28
2022-09-23T00:03:37.303Z,2.85
2022-09-23T00:06:07.148Z,2.70
2022-09-23T00:08:34.064Z,2.35
2022-09-23T00:11:06.156Z,2.85
2022-09-23T00:13:34.046Z,2.20
2022-09-23T00:16:06.515Z,2.50
2022-09-23T00:18:35.757Z,2.92
2022-09-23T00:21:04.310Z,2.90
2022-09-23T00:23:31.423Z,2.38
2022-09-23T00:25:59.636Z,2.78
2022-09-23T00:28:26.297Z,2.72
2022-09-23T00:30:53.011Z,2.45
2022-09-23T00:33:19.838Z,3.10
2022-09-23T00:35:47.266Z,2.78
2022-09-23T00:40:46.332Z,3.20
2022-09-23T00:43:14.740Z,3.45
2022-09-23T00:45:47.519Z,3.38
2022-09-23T00:48:20.120Z,3.15
2022-09-23T00:50:54.117Z,2.72
2022-09-23T00:53:23.433Z,2.85
2022-09-23T00:55:57.375Z,2.90
2022-09-23T00:58:27.915Z,2.67
2022-09-23T01:00:55.519Z,2.70
2022-09-23T01:03:22.922Z,3.10
2022-09-23T01:08:17.181Z,3.38
2022-09-23T01:11:06.050Z,3.25
2022-09-23T01:14:05.921Z,2.25
2022-09-23T01:16:44.432Z,2.35
2022-09-23T01:19:34.284Z,2.50
2022-09-23T01:22:27.846Z,2.80
2022-09-23T01:25:25.280Z,3.20
2022-09-23T01:28:17.666Z,2.90
2022-09-23T01:30:53.713Z,3.50
2022-09-23T01:33:35.025Z,3.42
2022-09-23T01:36:12.183Z,2.85
2022-09-23T01:39:08.077Z,3.27
2022-09-23T01:41:53.404Z,3.15
2022-09-23T01:44:41.717Z,3.35
2022-09-23T01:47:12.267Z,3.20
2022-09-23T01:49:50.504Z,3.42
2022-09-23T01:52:40.289Z,3.08
2022-09-23T01:55:15.936Z,3.22
2022-09-23T01:58:05.764Z,3.17
2022-09-23T02:00:36.666Z,3.17
2022-09-23T02:03:10.233Z,3.13
2022-09-23T02:05:44.804Z,3.40
2022-09-23T02:08:20.906Z,3.47
2022-09-23T02:10:58.777Z,3.42
2022-09-23T02:13:41.665Z,3.60
2022-09-23T02:16:18.173Z,3.85
2022-09-23T02:18:57.341Z,3.78
2022-09-23T02:21:29.052Z,3.05
2022-09-23T02:24:04.100Z,3.63
2022-09-23T02:26:37.596Z,3.03
2022-09-23T02:29:21.724Z,4.03
2022-09-23T02:32:18.450Z,3.05
2022-09-23T02:35:03.454Z,3.30
2022-09-23T02:37:48.246Z,4.07
2022-09-23T02:40:23.510Z,3.33
2022-09-23T02:43:11.881Z,3.08
2022-09-23T02:45:38.996Z,3.63
2022-09-23T02:48:10.694Z,3.53
2022-09-23T02:50:38.220Z,3.42
2022-09-23T02:53:06.354Z,3.55
2022-09-23T02:55:33.242Z,3.35
2022-09-23T02:58:01.495Z,3.53
2022-09-23T03:00:38.582Z,3.50
2022-09-23T03:03:45.470Z,3.23
2022-09-23T03:06:42.129Z,2.88
2022-09-23T03:09:33.807Z,3.47
2022-09-23T03:12:34.288Z,3.35
2022-09-23T03:15:35.479Z,4.03
2022-09-23T03:18:12.100Z,3.45
2022-09-23T03:20:52.597Z,3.58
2022-09-23T03:23:25.148Z,3.42
2022-09-23T03:25:54.522Z,3.42
2022-09-23T03:28:22.932Z,2.45
2022-09-23T03:30:52.125Z,2.60
2022-09-23T03:33:28.529Z,2.33
2022-09-23T03:36:20.845Z,2.75
2022-09-23T03:38:52.664Z,2.60
2022-09-23T03:41:29.991Z,2.78
2022-09-23T03:43:58.869Z,2.72
2022-09-23T03:46:29.920Z,3.45
2022-09-23T03:49:29.237Z,2.90
2022-09-23T03:51:56.473Z,3.60
2022-09-23T03:54:23.132Z,3.85
2022-09-23T03:56:49.856Z,3.73
2022-09-23T03:59:16.805Z,3.67
2022-09-23T04:01:43.835Z,3.88
2022-09-23T04:04:10.639Z,3.72
2022-09-23T04:06:37.292Z,3.78
2022-09-23T04:09:04.191Z,3.23
2022-09-23T04:11:30.872Z,3.25
2022-09-23T04:13:58.025Z,3.80
2022-09-23T04:16:25.066Z,3.22
2022-09-23T04:18:51.902Z,3.42
2022-09-23T04:21:18.580Z,4.57
2022-09-23T04:23:46.442Z,3.97
2022-09-23T04:26:13.621Z,3.90
2022-09-23T04:28:40.388Z,3.38
2022-09-23T04:31:09.339Z,4.05
2022-09-23T04:33:36.129Z,4.38
2022-09-23T04:36:02.931Z,3.58
2022-09-23T04:38:29.585Z,3.97
2022-09-23T04:40:56.702Z,3.70
2022-09-23T04:43:23.618Z,4.03
2022-09-23T04:46:05.293Z,3.72
2022-09-23T04:48:32.326Z,3.53
2022-09-23T04:51:04.126Z,3.53
2022-09-23T04:53:31.529Z,3.55
2022-09-23T05:01:48.375Z,3.72
2022-09-23T05:04:15.100Z,3.42
2022-09-23T05:06:44.978Z,3.60
2022-09-23T05:09:16.088Z,3.95
2022-09-23T05:11:43.605Z,3.60
2022-09-23T05:14:10.314Z,3.90
2022-09-23T05:16:36.990Z,4.05
2022-09-23T05:19:03.917Z,3.63
2022-09-23T05:21:31.264Z,3.47
2022-09-23T05:26:32.614Z,3.95
2022-09-23T05:29:00.338Z,4.30
2022-09-23T05:31:29.536Z,4.13
2022-09-23T05:34:01.857Z,3.72
2022-09-23T05:36:34.314Z,3.72
2022-09-23T05:39:04.773Z,4.28
2022-09-23T05:41:31.444Z,4.15
2022-09-23T05:43:59.640Z,4.15
2022-09-23T05:46:28.471Z,5.10
2022-09-23T05:49:02.602Z,4.15
2022-09-23T05:51:31.342Z,4.07
2022-09-23T05:53:59.771Z,3.88
2022-09-23T05:56:27.956Z,4.50
2022-09-23T05:58:57.467Z,4.60
2022-09-23T06:01:32.042Z,4.60
2022-09-23T06:03:59.729Z,4.72
2022-09-23T06:06:32.037Z,4.95
2022-09-23T06:09:00.127Z,4.75
2022-09-23T06:11:29.789Z,3.72
2022-09-23T06:14:01.142Z,3.97
2022-09-23T06:16:29.971Z,4.00
2022-09-23T06:18:58.830Z,3.92
2022-09-23T06:21:27.477Z,3.88
2022-09-23T06:23:56.649Z,4.05
2022-09-23T06:26:23.918Z,3.70
2022-09-23T06:28:50.577Z,4.50
2022-09-23T06:31:17.889Z,3.83
2022-09-23T06:33:45.837Z,4.53
2022-09-23T06:36:23.635Z,4.35
2022-09-23T06:38:57.402Z,5.05
2022-09-23T06:41:24.078Z,5.32
2022-09-23T06:43:50.703Z,5.35
2022-09-23T06:46:17.436Z,5.57
2022-09-23T06:48:46.301Z,4.40
2022-09-23T06:51:21.697Z,5.82
2022-09-23T06:53:49.150Z,4.95
2022-09-23T06:58:43.314Z,4.38
2022-09-23T07:01:19.109Z,5.05
2022-09-23T07:03:49.997Z,4.50
2022-09-23T07:06:17.688Z,3.88
2022-09-23T07:08:46.930Z,3.97
2022-09-23T07:11:14.668Z,4.35
2022-09-23T07:13:42.207Z,4.25
2022-09-23T07:16:10.852Z,3.67
2022-09-23T07:18:38.218Z,3.22
2022-09-23T07:21:11.409Z,3.30
2022-09-23T07:23:38.818Z,3.35
2022-09-23T07:28:36.969Z,2.95
2022-09-23T07:31:09.694Z,3.15
2022-09-23T07:33:38.242Z,2.85
2022-09-23T07:36:17.251Z,3.17
2022-09-23T07:38:45.769Z,3.28
2022-09-23T07:41:15.265Z,2.70
2022-09-23T07:43:42.215Z,2.55
2022-09-23T07:46:13.876Z,2.88
2022-09-23T07:48:40.623Z,3.42
2022-09-23T07:51:34.697Z,2.95
2022-09-23T07:54:03.024Z,2.92
2022-09-23T07:59:05.735Z,3.08
2022-09-23T08:01:42.776Z,2.38
2022-09-23T08:04:15.748Z,2.60
2022-09-23T08:06:45.036Z,2.70
2022-09-23T08:09:12.636Z,2.80
2022-09-23T08:11:41.843Z,2.95
2022-09-23T08:14:11.067Z,2.15
2022-09-23T08:16:37.719Z,2.97
2022-09-23T08:21:32.487Z,2.63
2022-09-23T08:23:59.290Z,2.63
2022-09-23T08:26:26.111Z,2.40
2022-09-23T08:28:56.471Z,2.05
2022-09-23T08:31:23.645Z,1.65
2022-09-23T08:33:59.604Z,2.13
2022-09-23T08:36:26.792Z,2.30
2022-09-23T08:38:53.653Z,2.30
2022-09-23T08:41:43.727Z,2.50
2022-09-23T08:44:20.210Z,2.13
2022-09-23T08:46:55.656Z,1.95
2022-09-23T08:49:31.665Z,1.80
2022-09-23T08:52:06.740Z,2.00
2022-09-23T08:54:34.177Z,2.15
2022-09-23T08:57:02.958Z,2.08
2022-09-23T08:59:43.029Z,2.40
2022-09-23T09:02:21.412Z,2.25
2022-09-23T09:04:53.678Z,1.90
2022-09-23T09:07:36.516Z,1.77
2022-09-23T09:10:15.054Z,1.80
2022-09-23T09:12:45.207Z,2.15
2022-09-23T09:15:16.474Z,2.00
2022-09-23T09:17:49.235Z,1.88
2022-09-23T09:20:18.959Z,1.80
2022-09-23T09:23:02.206Z,1.67
2022-09-23T09:25:39.655Z,1.70
2022-09-23T09:28:33.907Z,2.25
2022-09-23T09:31:02.763Z,2.00
2022-09-23T09:33:52.096Z,2.10
2022-09-23T09:36:39.918Z,1.75
2022-09-23T09:39:12.347Z,2.42
2022-09-23T09:41:41.858Z,2.13
2022-09-23T09:44:37.021Z,2.40
2022-09-23T09:47:28.582Z,2.15
2022-09-23T09:50:10.060Z,2.28
2022-09-23T09:52:43.361Z,2.00
2022-09-23T09:55:13.091Z,1.95
2022-09-23T09:57:52.029Z,2.10
2022-09-23T10:00:34.799Z,1.75
2022-09-23T10:03:08.408Z,1.65
2022-09-23T10:05:49.306Z,1.65
2022-09-23T10:08:19.189Z,1.35
2022-09-23T10:11:15.921Z,1.55
2022-09-23T10:14:00.590Z,1.70
2022-09-23T10:16:28.346Z,1.67
2022-09-23T10:18:56.949Z,1.67
2022-09-23T10:21:28.003Z,1.50
2022-09-23T10:24:01.587Z,1.75
2022-09-23T10:26:44.020Z,1.80
2022-09-23T10:29:28.713Z,1.48
2022-09-23T10:32:32.589Z,1.83
2022-09-23T10:35:14.626Z,1.50
2022-09-23T10:37:44.369Z,1.52
2022-09-23T10:40:37.639Z,1.42
2022-09-23T10:43:53.046Z,1.75
2022-09-23T10:46:38.806Z,1.75
2022-09-23T10:49:27.604Z,1.30
2022-09-23T10:51:54.207Z,1.45
2022-09-23T10:54:47.481Z,1.60
2022-09-23T10:57:43.238Z,1.33
2022-09-23T11:00:22.254Z,1.60
2022-09-23T11:03:26.064Z,1.45
2022-09-23T11:06:07.825Z,1.48
2022-09-23T11:09:15.326Z,1.52
2022-09-23T11:12:19.594Z,1.33
2022-09-23T11:15:23.040Z,1.90
2022-09-23T11:17:59.836Z,2.53
2022-09-23T11:20:39.867Z,1.88
2022-09-23T11:23:18.635Z,1.75
2022-09-23T11:25:56.270Z,1.90
2022-09-23T11:28:42.373Z,1.50
2022-09-23T11:31:19.414Z,1.63
2022-09-23T11:34:01.590Z,1.40
2022-09-23T11:36:36.096Z,1.55
2022-09-23T11:39:11.763Z,1.90
2022-09-23T11:41:40.157Z,1.85
2022-09-23T11:44:08.722Z,1.40
2022-09-23T11:46:40.642Z,1.40
2022-09-23T11:49:15.828Z,2.20
2022-09-23T11:52:19.685Z,1.40
2022-09-23T11:54:51.186Z,1.40
2022-09-23T11:57:44.924Z,1.50
2022-09-23T12:00:20.210Z,1.67
2022-09-23T12:03:04.048Z,1.90
2022-09-23T12:05:39.891Z,1.42
2022-09-23T12:08:32.274Z,1.60
2022-09-23T12:11:02.026Z,1.80
2022-09-23T12:13:31.436Z,1.63
2022-09-23T12:16:21.666Z,1.65
2022-09-23T12:18:59.282Z,1.90
2022-09-23T12:21:51.581Z,1.90
2022-09-23T12:24:46.092Z,2.00
2022-09-23T12:27:25.166Z,1.88
2022-09-23T12:29:58.541Z,1.80
2022-09-23T12:32:26.383Z,2.05
2022-09-23T12:34:53.775Z,2.60
2022-09-23T12:37:27.760Z,2.95
2022-09-23T12:39:58.607Z,2.83
2022-09-23T12:42:30.183Z,2.88
2022-09-23T12:45:17.422Z,3.30
2022-09-23T12:47:44.100Z,3.45
2022-09-23T12:50:46.517Z,2.90
2022-09-23T12:53:34.829Z,2.92
2022-09-23T12:56:16.803Z,2.13
2022-09-23T12:58:43.420Z,2.95
2022-09-23T13:01:20.404Z,3.00
2022-09-23T13:04:13.313Z,3.40
2022-09-23T13:07:07.680Z,2.47
2022-09-23T13:09:42.613Z,2.85
2022-09-23T13:12:23.126Z,2.85
2022-09-23T13:14:52.875Z,2.80
2022-09-23T13:17:45.881Z,2.40
2022-09-23T13:20:36.430Z,2.80
2022-09-23T13:23:15.551Z,2.55
2022-09-23T13:25:43.128Z,2.33
2022-09-23T13:28:39.713Z,2.85
2022-09-23T13:31:14.779Z,2.83
2022-09-23T13:33:50.338Z,2.67
2022-09-23T13:36:18.774Z,3.72
2022-09-23T13:38:46.906Z,2.70
2022-09-23T13:41:23.558Z,2.70
2022-09-23T13:43:58.684Z,3.03
2022-09-23T13:46:29.512Z,2.30
2022-09-23T13:48:56.972Z,2.88
2022-09-23T13:51:36.653Z,2.55
2022-09-23T13:54:05.113Z,3.03
2022-09-23T13:56:33.452Z,2.40
2022-09-23T13:59:29.429Z,2.58
2022-09-23T14:02:19.917Z,2.35
2022-09-23T14:04:47.045Z,2.72
2022-09-23T14:07:15.802Z,2.78
2022-09-23T14:09:49.565Z,2.38
2022-09-23T14:12:22.206Z,3.17
2022-09-23T14:14:51.687Z,2.90
2022-09-23T14:17:21.498Z,2.47
2022-09-23T14:19:48.639Z,3.10
2022-09-23T14:22:27.274Z,2.83
2022-09-23T14:24:55.700Z,2.80
2022-09-23T14:27:33.816Z,2.60
2022-09-23T14:30:02.588Z,2.60
2022-09-23T14:32:30.155Z,2.80
2022-09-23T14:34:59.545Z,2.97
2022-09-23T14:37:52.698Z,2.33
2022-09-23T14:40:22.475Z,2.90
2022-09-23T14:42:56.987Z,2.30
2022-09-23T14:45:30.136Z,2.70
2022-09-23T14:47:59.857Z,2.80
2022-09-23T14:50:48.328Z,2.85
2022-09-23T14:55:53.555Z,3.30
2022-09-23T14:58:25.575Z,2.53
2022-09-23T15:00:54.297Z,2.20
2022-09-23T15:03:21.578Z,2.47
2022-09-23T15:08:21.874Z,2.90
2022-09-23T15:10:49.599Z,4.57
2022-09-23T15:13:29.809Z,5.68
2022-09-23T15:15:57.810Z,2.67
2022-09-23T15:18:33.946Z,3.47
2022-09-23T15:21:10.324Z,2.88
2022-09-23T15:23:56.472Z,3.40
2022-09-23T15:26:44.874Z,2.72
2022-09-23T15:31:38.947Z,3.15
2022-09-23T15:34:05.841Z,2.85
2022-09-23T15:36:32.923Z,2.75
2022-09-23T15:39:05.246Z,2.65
2022-09-23T15:41:33.165Z,2.50
2022-09-23T15:44:11.604Z,2.70
2022-09-23T15:46:39.898Z,2.38
2022-09-23T15:49:14.520Z,5.05
2022-09-23T15:51:42.912Z,3.60
2022-09-23T15:54:12.386Z,3.00
2022-09-23T15:56:39.679Z,2.50
2022-09-23T15:59:06.374Z,2.67
2022-09-23T16:01:36.062Z,2.35
2022-09-23T16:04:04.380Z,2.58
2022-09-23T16:06:32.164Z,2.35
2022-09-23T16:08:58.804Z,2.50
2022-09-23T16:11:30.118Z,2.38
2022-09-23T16:13:57.052Z,2.50
2022-09-23T16:16:24.003Z,2.63
2022-09-23T16:18:53.425Z,2.30
2022-09-23T16:21:23.032Z,2.22
2022-09-23T16:23:51.358Z,3.83
2022-09-23T16:26:24.226Z,2.85
2022-09-23T16:28:54.277Z,6.05
2022-09-23T16:31:22.070Z,9.50
2022-09-23T16:33:51.229Z,7.00
2022-09-23T16:36:26.951Z,7.70
2022-09-23T16:38:57.759Z,4.38
2022-09-23T16:41:26.231Z,3.55
2022-09-23T16:43:53.554Z,3.22
2022-09-23T16:48:52.259Z,3.15
2022-09-23T16:51:28.731Z,3.13
2022-09-23T16:53:57.391Z,3.30
2022-09-23T16:56:28.647Z,2.90
2022-09-23T16:58:56.293Z,3.45
2022-09-23T17:01:46.277Z,3.67
2022-09-23T17:04:14.637Z,3.10
2022-09-23T17:06:46.246Z,3.38
2022-09-23T17:09:12.891Z,3.78
2022-09-23T17:11:39.686Z,3.85
2022-09-23T17:14:07.366Z,4.15
2022-09-23T17:16:34.866Z,3.63
2022-09-23T17:19:10.252Z,3.40
2022-09-23T17:21:37.374Z,3.72
2022-09-23T17:24:04.747Z,3.78
2022-09-23T17:28:59.585Z,4.03
2022-09-23T17:31:26.376Z,3.60
2022-09-23T17:33:53.708Z,3.63
2022-09-23T17:38:48.324Z,4.43
2022-09-23T17:41:15.880Z,5.75
2022-09-23T17:43:43.058Z,5.30
2022-09-23T17:46:16.212Z,4.28
2022-09-23T17:48:43.136Z,5.20
2022-09-23T17:51:14.065Z,5.50
2022-09-23T17:53:45.004Z,6.95
2022-09-23T17:56:15.154Z,5.82
2022-09-23T17:58:42.593Z,7.40
2022-09-23T18:01:20.524Z,7.45
2022-09-23T18:06:21.514Z,4.22
2022-09-23T18:08:49.776Z,4.15
2022-09-23T18:11:19.286Z,5.85
2022-09-23T18:13:55.050Z,7.18
2022-09-23T18:16:25.067Z,6.85
2022-09-23T18:19:00.148Z,6.22
2022-09-23T18:21:29.823Z,5.90
2022-09-23T18:24:21.400Z,6.47
2022-09-23T18:26:44.742Z,5.13
2022-09-23T18:29:11.450Z,4.20
2022-09-23T18:31:39.032Z,5.00
2022-09-23T18:34:11.075Z,5.35
2022-09-23T18:36:37.936Z,4.55
2022-09-23T18:39:04.781Z,4.03
2022-09-23T18:41:31.499Z,3.85
2022-09-23T18:43:58.391Z,3.90
2022-09-23T18:46:26.942Z,4.07
2022-09-23T18:49:12.253Z,4.20
2022-09-23T18:51:56.478Z,4.25
2022-09-23T18:54:25.485Z,3.33
2022-09-23T18:56:52.708Z,4.00
2022-09-23T19:01:49.997Z,8.00
2022-09-23T19:04:19.190Z,9.30
2022-09-23T19:06:46.148Z,5.57
2022-09-23T19:09:14.237Z,4.05
2022-09-23T19:11:41.165Z,4.60
2022-09-23T19:14:11.222Z,5.55
2022-09-23T19:16:39.237Z,4.95
2022-09-23T19:19:06.414Z,5.32
2022-09-23T19:21:33.804Z,3.60
2022-09-23T19:26:37.545Z,3.85
2022-09-23T19:29:05.860Z,3.92
2022-09-23T19:31:35.322Z,3.15
2022-09-23T19:34:05.981Z,3.28
2022-09-23T19:36:34.510Z,3.28
2022-09-23T19:39:04.424Z,3.70
2022-09-23T19:41:33.352Z,4.20
2022-09-23T19:44:07.501Z,3.70
2022-09-23T19:46:37.108Z,3.20
2022-09-23T19:49:05.612Z,3.10
2022-09-23T19:51:36.584Z,3.67
2022-09-23T19:54:04.531Z,3.33
2022-09-23T19:56:32.366Z,3.20
2022-09-23T19:58:59.632Z,5.43
2022-09-23T20:01:28.477Z,6.50
2022-09-23T20:03:55.952Z,5.93
2022-09-23T20:06:23.024Z,3.42
2022-09-23T20:08:50.273Z,4.00
2022-09-23T20:11:22.568Z,4.05
2022-09-23T20:13:58.348Z,4.55
2022-09-23T20:16:25.741Z,6.40
2022-09-23T20:18:52.818Z,7.55
2022-09-23T20:21:19.513Z,8.15
2022-09-23T20:23:46.225Z,7.43
2022-09-23T20:26:31.614Z,5.43
2022-09-23T20:29:01.276Z,3.83
2022-09-23T20:31:28.673Z,4.22
2022-09-23T20:33:59.981Z,4.55
2022-09-23T20:36:28.304Z,4.00
2022-09-23T20:39:00.253Z,4.05
2022-09-23T20:41:31.384Z,4.35
2022-09-23T20:44:01.280Z,4.32
2022-09-23T20:46:28.775Z,4.50
2022-09-23T20:48:56.892Z,4.50
2022-09-23T20:51:24.920Z,4.47
2022-09-23T20:53:53.083Z,3.70
2022-09-23T20:56:21.328Z,4.50
2022-09-23T20:58:50.331Z,4.03
2022-09-23T21:01:17.396Z,4.25
2022-09-23T21:03:45.896Z,3.85
2022-09-23T21:06:14.461Z,3.67
2022-09-23T21:08:42.164Z,3.60
2022-09-23T21:11:14.978Z,3.60
2022-09-23T21:13:47.071Z,4.38
2022-09-23T21:16:16.147Z,7.55
2022-09-23T21:18:43.745Z,6.80
2022-09-23T21:21:12.093Z,4.70
2022-09-23T21:23:39.622Z,5.20
2022-09-23T21:26:08.324Z,5.40
2022-09-23T21:28:40.185Z,6.10
2022-09-23T21:31:13.141Z,6.47
2022-09-23T21:33:39.827Z,7.85
2022-09-23T21:36:07.388Z,5.82
2022-09-23T21:38:38.154Z,4.28
2022-09-23T21:41:07.245Z,4.57
2022-09-23T21:43:37.242Z,4.80
2022-09-23T21:46:06.485Z,6.07
2022-09-23T21:48:34.919Z,6.43
2022-09-23T21:51:08.157Z,8.23
2022-09-23T21:53:39.099Z,7.43
2022-09-23T21:56:08.555Z,7.22
2022-09-23T21:58:37.399Z,7.32
2022-09-23T22:01:18.738Z,7.38
2022-09-23T22:03:53.649Z,7.18
2022-09-23T22:06:23.508Z,6.95
2022-09-23T22:08:53.276Z,6.70
2022-09-23T22:11:40.846Z,6.85
2022-09-23T22:14:10.905Z,7.28
2022-09-23T22:16:38.919Z,6.75
2022-09-23T22:19:07.128Z,6.28
2022-09-23T22:21:36.570Z,7.47
2022-09-23T22:24:05.621Z,9.15
2022-09-23T22:26:38.272Z,7.35
2022-09-23T22:29:25.978Z,7.43
2022-09-23T22:32:11.530Z,7.90
2022-09-23T22:34:49.557Z,5.78
2022-09-23T22:37:19.960Z,5.70
2022-09-23T22:39:46.620Z,6.18
2022-09-23T22:42:14.179Z,7.72
2022-09-23T22:44:40.905Z,7.65
2022-09-23T22:47:09.145Z,7.00
2022-09-23T22:49:36.040Z,6.07
2022-09-23T22:52:04.029Z,7.00
2022-09-23T22:54:33.932Z,7.05
2022-09-23T22:57:03.292Z,6.25
2022-09-23T22:59:30.220Z,5.72
2022-09-23T23:01:59.083Z,5.63
2022-09-23T23:04:25.781Z,5.90
2022-09-23T23:06:52.405Z,5.82
2022-09-23T23:09:19.106Z,6.03
2022-09-23T23:11:47.165Z,4.97
2022-09-23T23:14:16.312Z,4.93
2022-09-23T23:16:45.143Z,5.88
2022-09-23T23:19:16.860Z,5.68
2022-09-23T23:21:45.248Z,5.60
2022-09-23T23:24:17.474Z,6.18
2022-09-23T23:26:45.152Z,5.80
2022-09-23T23:29:13.963Z,5.40
2022-09-23T23:31:40.983Z,5.38
2022-09-23T23:34:11.928Z,5.32
2022-09-23T23:36:39.395Z,6.05
2022-09-23T23:39:06.800Z,5.38
2022-09-23T23:44:01.037Z,5.72
2022-09-23T23:46:30.253Z,5.57
2022-09-23T23:48:57.828Z,5.47
2022-09-23T23:51:26.375Z,5.82
2022-09-23T23:53:53.956Z,5.38
2022-09-23T23:56:25.630Z,5.28
2022-09-23T23:58:57.131Z,5.65
